Time;durP1;ratioP1;P1;durP2;ratioP2;P2;SDS_P1;SDS_P2;PMS_P1;PMS_P2;Temp;Humidity;BMP_temperature;BMP_pressure;BME280_temperature;BME280_humidity;BME280_pressure;Samples;Min_cycle;Max_cycle;Signal;HPM_P1;HPM_P2
2022/10/06 00:03:29;;;;;;;3.37;2.60;;;;;;;15.77;nan;101287.25;31847076;27;20043;-71
2022/10/06 00:18:31;;;;;;;5.47;2.30;;;;;;;15.76;nan;101288.44;31840274;27;20058;-72
2022/10/06 00:33:33;;;;;;;4.07;3.03;;;;;;;15.70;nan;101276.44;31838146;27;20043;-72
2022/10/06 00:48:36;;;;;;;4.50;2.90;;;;;;;15.76;nan;101268.50;31838757;27;20062;-72
2022/10/06 01:03:46;;;;;;;5.97;2.90;;;;;;;15.68;nan;101278.84;31840123;27;20506;-72
2022/10/06 01:18:49;;;;;;;4.70;2.63;;;;;;;15.59;nan;101289.59;31866350;27;20141;-73
2022/10/06 01:33:53;;;;;;;3.67;2.67;;;;;;;15.55;nan;101305.31;31862969;27;20412;-72
2022/10/06 01:48:55;;;;;;;4.33;2.60;;;;;;;15.50;nan;101292.09;31854129;27;20532;-72
2022/10/06 02:03:57;;;;;;;4.97;2.93;;;;;;;15.34;nan;101266.25;31863078;27;20062;-72
2022/10/06 02:18:58;;;;;;;10.67;3.17;;;;;;;15.24;nan;101271.94;31859454;27;20092;-72
2022/10/06 02:34:01;;;;;;;6.40;3.43;;;;;;;15.16;nan;101243.94;31861186;27;20071;-73
2022/10/06 02:49:03;;;;;;;6.10;4.10;;;;;;;14.92;nan;101267.84;31842881;27;20067;-73
2022/10/06 03:04:05;;;;;;;8.03;3.80;;;;;;;14.73;nan;101292.44;31858180;27;20054;-73
2022/10/06 03:19:08;;;;;;;7.00;4.53;;;;;;;14.68;nan;101319.03;31854779;27;20059;-72
2022/10/06 03:34:12;;;;;;;10.20;4.40;;;;;;;14.71;nan;101309.25;31847320;27;20047;-71
2022/10/06 03:49:14;;;;;;;8.40;5.73;;;;;;;14.78;nan;101317.31;31845214;27;20059;-72
2022/10/06 04:04:16;;;;;;;12.27;5.17;;;;;;;14.25;nan;101326.38;31849346;27;20492;-72
2022/10/06 04:19:18;;;;;;;11.40;4.90;;;;;;;14.23;nan;101321.31;31849434;27;20518;-72
2022/10/06 04:34:20;;;;;;;10.27;5.90;;;;;;;14.48;nan;101320.94;31843390;27;20047;-71
2022/10/06 04:49:22;;;;;;;10.17;4.83;;;;;;;14.70;nan;101320.59;31837942;27;20408;-73
2022/10/06 05:04:24;;;;;;;6.37;3.90;;;;;;;14.93;nan;101331.50;31839867;27;20051;-72
2022/10/06 05:19:26;;;;;;;7.23;3.80;;;;;;;15.26;nan;101333.22;31844946;27;20050;-73
2022/10/06 05:34:28;;;;;;;9.40;5.63;;;;;;;17.51;nan;101314.91;31848934;27;20047;-73
2022/10/06 05:49:30;;;;;;;11.70;6.23;;;;;;;19.69;nan;101321.81;31831952;27;20059;-73
2022/10/06 06:04:32;;;;;;;8.20;4.13;;;;;;;20.60;nan;101326.84;31857069;27;20070;-73
2022/10/06 06:19:34;;;;;;;6.30;3.22;;;;;;;19.75;nan;101335.75;31873839;27;20047;-73
2022/10/06 06:34:35;;;;;;;5.68;3.25;;;;;;;20.12;nan;101344.19;31842827;27;20055;-72
2022/10/06 06:49:38;;;;;;;5.50;2.70;;;;;;;21.62;nan;101331.09;31849398;27;20481;-72
2022/10/06 07:04:40;;;;;;;5.47;2.55;;;;;;;23.14;nan;101345.00;31857715;27;20054;-73
2022/10/06 08:00:47;;;;;;;5.00;2.30;;;;;;;26.46;35.93;101355.56;31549857;27;20743;-75
2022/10/06 08:16:09;;;;;;;8.23;2.28;;;;;;;26.72;34.94;101339.47;31430874;28;20049;-84
2022/10/06 08:31:21;;;;;;;3.28;1.98;;;;;;;27.11;34.33;101325.69;31445041;28;20045;-83
2022/10/06 08:46:30;;;;;;;9.85;1.95;;;;;;;28.28;32.36;101315.75;31456433;28;20087;-87
2022/10/06 09:01:51;;;;;;;2.80;1.75;;;;;;;28.25;31.28;101328.69;31371835;28;20041;-86
2022/10/06 09:17:00;;;;;;;3.60;1.80;;;;;;;28.41;32.02;101327.13;31364761;28;20053;-82
2022/10/06 09:32:02;;;;;;;2.70;1.30;;;;;;;28.33;31.57;101312.19;31340529;28;20447;-84
2022/10/06 09:47:36;;;;;;;2.72;1.35;;;;;;;28.15;31.96;101310.66;31355020;28;20049;-85
2022/10/06 10:02:39;;;;;;;2.00;1.23;;;;;;;28.63;30.97;101296.28;31368983;28;20080;-76
2022/10/06 10:17:45;;;;;;;2.70;1.10;;;;;;;30.01;29.97;101276.16;31357464;28;20130;-81
2022/10/06 10:32:56;;;;;;;3.22;2.28;;;;;;;29.12;30.65;101271.34;31336672;28;20115;-76
2022/10/06 10:47:59;;;;;;;3.15;1.98;;;;;;;28.96;30.96;101258.28;31347188;28;20053;-77
2022/10/06 11:03:02;;;;;;;4.78;1.70;;;;;;;28.56;32.46;101254.97;31334647;28;20417;-77
2022/10/06 11:18:21;;;;;;;2.72;1.40;;;;;;;28.03;31.05;101242.97;31336573;28;20799;-76
2022/10/06 11:33:40;;;;;;;2.53;1.67;;;;;;;28.92;31.58;101227.81;31359651;28;20049;-78
2022/10/06 11:48:42;;;;;;;3.72;1.45;;;;;;;30.39;29.17;101225.81;31337667;28;20060;-87
2022/10/06 12:03:47;;;;;;;3.10;1.30;;;;;;;28.62;30.93;101222.13;31341768;28;20048;-82
2022/10/06 12:19:07;;;;;;;7.60;3.38;;;;;;;26.14;34.45;101218.53;31347023;28;20567;-78
2022/10/06 12:34:49;;;;;;;15.45;8.13;;;;;;;24.25;37.66;101212.16;31367427;28;20045;-79
2022/10/06 12:50:27;;;;;;;6.10;1.88;;;;;;;23.72;39.08;101202.91;30981486;28;20042;-81
2022/10/06 13:05:34;;;;;;;3.35;1.75;;;;;;;23.36;39.27;101206.13;31095127;28;20045;-82
2022/10/06 13:20:48;;;;;;;9.68;3.30;;;;;;;23.13;39.52;101199.47;31334187;28;20102;-78
2022/10/06 13:35:53;;;;;;;1.73;1.10;;;;;;;22.88;39.58;101189.75;31361100;28;20493;-77
2022/10/06 13:50:55;;;;;;;5.03;1.52;;;;;;;22.57;40.09;101187.38;31318905;28;20053;-75
2022/10/06 14:06:25;;;;;;;7.28;2.10;;;;;;;22.34;40.63;101179.91;31332930;28;20056;-78
2022/10/06 14:21:40;;;;;;;2.95;1.48;;;;;;;22.09;41.48;101168.13;31352451;28;20557;-79
2022/10/06 14:36:45;;;;;;;6.75;2.17;;;;;;;22.08;41.54;101163.81;31342922;28;20571;-80
2022/10/06 14:51:47;;;;;;;3.15;1.92;;;;;;;21.81;42.99;101175.03;31337334;28;20437;-75
2022/10/06 15:22:09;;;;;;;7.97;2.13;;;;;;;20.97;44.30;101189.66;31413866;28;20068;-82
2022/10/06 15:37:11;;;;;;;6.50;2.20;;;;;;;20.55;46.08;101197.81;31368280;28;20103;-85
2022/10/06 15:52:13;;;;;;;5.22;2.28;;;;;;;20.28;47.13;101203.31;31347413;28;20486;-75
2022/10/06 16:07:17;;;;;;;4.50;1.92;;;;;;;19.92;47.69;101204.78;31363973;28;20053;-77
2022/10/06 16:22:20;;;;;;;11.73;2.67;;;;;;;19.71;49.05;101213.91;31355349;28;20128;-79
2022/10/06 16:37:22;;;;;;;4.43;2.63;;;;;;;19.38;49.88;101219.09;31364078;28;20052;-77
2022/10/06 16:52:24;;;;;;;8.57;5.15;;;;;;;19.15;50.11;101212.13;31339425;28;20053;-77
2022/10/06 17:07:26;;;;;;;14.20;6.47;;;;;;;18.73;50.42;101226.22;31351803;28;20686;-84
2022/10/06 17:22:28;;;;;;;12.87;7.20;;;;;;;18.42;51.43;101216.31;31363284;28;20053;-85
2022/10/06 17:37:30;;;;;;;6.90;3.20;;;;;;;18.16;51.53;101232.88;31337825;28;20049;-77
2022/10/06 17:52:37;;;;;;;7.87;2.10;;;;;;;17.98;51.64;101233.44;31323189;28;20065;-76
2022/10/06 18:07:39;;;;;;;4.73;2.50;;;;;;;17.93;52.23;101238.75;31318218;28;20076;-77
2022/10/06 18:22:41;;;;;;;5.73;3.43;;;;;;;17.84;53.22;101222.94;31318190;28;20428;-76
2022/10/06 18:37:44;;;;;;;9.60;3.43;;;;;;;17.81;54.51;101226.56;31336907;28;20048;-75
2022/10/06 18:52:47;;;;;;;10.50;6.73;;;;;;;17.58;56.00;101233.13;31327256;28;20072;-76
2022/10/06 19:07:51;;;;;;;16.90;9.50;;;;;;;17.65;56.02;101238.44;31348428;28;20084;-77
2022/10/06 19:22:53;;;;;;;9.77;5.10;;;;;;;17.45;57.19;101240.59;31332863;28;20087;-74
2022/10/06 19:37:55;;;;;;;14.43;8.47;;;;;;;17.34;57.99;101245.63;31294946;28;20084;-75
2022/10/06 19:52:57;;;;;;;8.87;5.47;;;;;;;17.14;60.75;101251.28;31299300;28;20123;-76
2022/10/06 20:07:58;;;;;;;8.03;3.93;;;;;;;16.82;61.65;101254.16;31312091;28;20084;-76
2022/10/06 20:23:00;;;;;;;10.33;4.63;;;;;;;16.50;64.47;101250.28;31284328;28;20102;-76
2022/10/06 20:38:05;;;;;;;11.40;4.07;;;;;;;16.46;67.00;101259.78;31302354;28;20134;-77
2022/10/06 20:53:08;;;;;;;7.47;4.60;;;;;;;16.53;67.20;101274.09;31330319;28;20482;-76
2022/10/06 21:08:10;;;;;;;9.43;4.00;;;;;;;16.54;67.91;101266.59;31323982;28;20053;-76
2022/10/06 21:23:13;;;;;;;9.60;4.77;;;;;;;16.46;67.87;101260.56;31319266;28;20504;-77
2022/10/06 21:38:15;;;;;;;6.90;3.93;;;;;;;16.39;67.25;101260.72;31348833;28;20180;-76
2022/10/06 21:53:17;;;;;;;8.27;3.37;;;;;;;16.28;66.02;101252.00;31335945;28;20118;-77
2022/10/06 22:08:19;;;;;;;9.63;3.47;;;;;;;16.35;63.73;101255.31;31340716;28;20067;-77
2022/10/06 22:23:21;;;;;;;4.60;2.77;;;;;;;16.27;63.09;101250.47;31346450;28;20041;-77
2022/10/06 22:38:23;;;;;;;7.80;3.40;;;;;;;16.28;62.29;101233.59;31309281;28;20107;-77
2022/10/06 22:53:28;;;;;;;13.67;5.57;;;;;;;16.24;61.80;101226.66;31343663;28;20071;-76
2022/10/06 23:08:30;;;;;;;10.63;4.77;;;;;;;15.96;62.74;101226.16;31339763;28;20064;-76
2022/10/06 23:23:36;;;;;;;10.47;4.40;;;;;;;15.75;63.15;101202.03;31338565;28;20060;-76
2022/10/06 23:38:38;;;;;;;6.97;3.57;;;;;;;15.61;63.44;101205.09;31328668;28;20056;-78
2022/10/06 23:53:41;;;;;;;5.37;3.23;;;;;;;15.31;64.44;101190.50;31331082;28;20052;-76
